Lafayette, Ohio
Current Conditions -  °F | °C
As of 3:53 AM on Wednesday 26 Nov 2014 (Local Time) from KAOH Reporting Station
Overcast Overcast  
Wind Chill: 21°   Ceiling: 1500
Heat Index: 28°   Visibility: 10mi
Dew Point: 21°   Wind: 7mph
Humidity: 75%   Direction: 40°NE
Pressure: 30.15"   Gusts: NA
Location:  40.76°N, 83.95°W
Report Text: KAOH 260853Z AUTO 04006KT 10SM OVC015 M02/M06 A3015 RMK AO2 SLP219 T10221061 58003
Loading
Personal Weather Stations






























Interactive Weather Map New forecast layout! Learn more

10-Day Weather Forecast

Advertisements
Track Severe Weather on mobile